ProRodeoTv.Com
Red

PRCA Stock Statistics

SEARCH BY:
Stock Rodeo Contestant Stock Contractor

Clayton Sellars

EVENT:
Unofficial results reflect placement at time of Web posting and can change.

SEASON BREAKDOWN

Season Attempts Qual Rides Re-rides Ride %
2018 53 32 0 60.38 %
2017 85 30 0 35.29 %
Totals 138 62 0 0.00 %

RODEO DETAIL

Date Location Rodeo SC Brand Ride Comments Stock Score Contestant Score
4/21/2018 Red Bluff, CA Red Bluff Round-Up TB 301 0.00 23.00 / 22.00 0.00 / 0.00
4/20/2018 Wichita Falls, TX Wichita Falls PRCA Rodeo KL 30 0.00 21.00 / 22.00 0.00 / 0.00
4/14/2018 Oakdale, CA Oakdale Saddle Club Rodeo JD 031 0.00 20.50 / 16.50 0.00 / 0.00
4/11/2018 Logandale, NV Clark County Fair & Rodeo TB 331 0.00 20.00 / 18.50 0.00 / 0.00
3/30/2018 Lawton, OK Lawton Extreme Bulls FR 305 0.00 20.50 / 21.00 0.00 / 0.00
3/30/2018 Redmond, OR High Desert Stampede TB 233 82.50 19.50 / 20.50 21.00 / 21.50
3/25/2018 Cave Creek, AZ Cave Creek Rodeo Days FL 441 80.00 19.50 / 20.00 20.50 / 20.00
3/22/2018 Nacogdoches, TX Nacogdoches Pro Rodeo & Steer Show PC 220 0.00 21.00 / 21.00 0.00 / 0.00
3/17/2018 Montgomery, AL Southeastern Livestock Exposition FR 43 82.50 19.00 / 21.00 20.00 / 22.50
3/14/2018 Mercedes, TX Rio Grande Valley Livestock Show & Rodeo Xtreme Bulls CR 9Z- 0.00 22.00 / 21.50 0.00 / 0.00
3/12/2018 Austin, TX Rodeo Austin RM 04 0.00 22.00 / 21.00 0.00 / 0.00
3/11/2018 Okeechobee, FL Okeechobee Florida Cowtown Rodeo SI K92 81.50 20.00 / 20.00 20.00 / 21.50
3/10/2018 Arcadia, FL Arcadia All-Fla Championship Rodeo FR 252 0.00 20.00 / 19.00 0.00 / 0.00
3/9/2018 Valley City, ND North Dakota Winter Show SU 407 72.00 17.00 / 18.00 19.00 / 18.00
3/3/2018 Grand Island, NE Xtreme Bulls Tour NF 92 0.00 21.00 / 22.00 0.00 / 0.00
3/2/2018 Fort Mohave, AZ Fort Mohave Classic PRCA Xtreme Bulls HR 3525 0.00 21.00 / 21.00 0.00 / 0.00
2/25/2018 Tucson, AZ La Fiesta De Los Vaqueros BU 305 0.00 22.50 / 22.00 0.00 / 0.00
2/24/2018 San Antonio, TX San Antonio Stock Show & Rodeo Xtreme Bulls DH 81A 0.00 22.00 / 22.00 0.00 / 0.00
2/22/2018 Tucson, AZ La Fiesta De Los Vaqueros RM 066 86.00 20.50 / 21.00 22.50 / 22.00
2/18/2018 Los Fresnos, TX Los Fresnos PRCA Rodeo UP 15 74.00 18.00 / 18.50 19.00 / 18.50
2/17/2018 San Antonio, TX San Antonio Stock Show & Rodeo FR 74 82.00 19.50 / 20.00 21.50 / 21.00
2/17/2018 San Antonio, TX San Antonio Stock Show & Rodeo RH 223 84.50 22.50 / 20.50 19.50 / 22.00
2/16/2018 San Antonio, TX San Antonio Stock Show & Rodeo FR B7 82.00 19.00 / 20.50 21.00 / 21.50
2/15/2018 San Angelo, TX San Angelo Rodeo LJ H6 71.00 20.00 / 19.00 17.00 / 15.00
2/11/2018 Yuma, AZ 73rd Annual Yuma Jaycees Silver Spur Rodeo HR 3500 80.00 20.00 / 20.00 20.00 / 20.00
Page of 3
Per Page
 
 
 
footer-april-24
MGM Grand Polaris Ranger
Copyright © 2018 Professional Rodeo Cowboys Association. All rights reserved. No portion of ProRodeo.com may be duplicated, redistributed or manipulated in any form. By accessing any information beyond this page, you agree to abide by the Terms of Use.
PRCA Wrangler National Finals Rodeo Wrangler ProRodeo Tour Finale Presented by Justin Boots Xtreme Bulls RAM National Circuit Finals Rodeo ProRodeo Gear